SLD weather

Sliač Airport
Sliač, Banská Bystrica, Slovakia

Public forecast

Using degrees Celsius for public forecast. Weather courtesy of forecast.io.

Current aviation weather report (METAR) for Sliač Airport

Retrieved 2020/01/23 13:30 UTC (16 minutes ago):

LZSL 231330Z VRB02KT CAVOK 07/M05 Q1031

Aviation forecast (TAF) for Sliač Airport

Forecast is more than 12 hours old.

Retrieved 2014/05/01 21:18 UTC (6 years ago):

TAF TAF LZSL 302000Z 3021/0106 VRB02KT 8000 NSC BECMG 3022/3024 3500 BCFG SCT001 TEMPO 3022/0106 0150 FG BKN001